createdAt,value
2018-12-02T00:00:35.423Z,4.60
2018-12-02T00:03:12.264Z,3.80
2018-12-02T00:05:46.380Z,4.30
2018-12-02T00:08:39.037Z,4.97
2018-12-02T00:16:36.758Z,4.70
2018-12-02T00:19:11.634Z,4.83
2018-12-02T00:21:45.432Z,4.10
2018-12-02T00:24:19.176Z,5.27
2018-12-02T00:26:52.981Z,4.67
2018-12-02T00:29:26.745Z,4.57
2018-12-02T00:32:00.525Z,4.80
2018-12-02T00:34:34.338Z,5.10
2018-12-02T00:37:09.661Z,5.00
2018-12-02T00:39:44.275Z,4.77
2018-12-02T00:42:18.004Z,4.47
2018-12-02T00:44:51.806Z,5.37
2018-12-02T00:47:25.933Z,4.10
2018-12-02T00:50:00.762Z,3.87
2018-12-02T00:52:35.327Z,4.28
2018-12-02T00:55:12.226Z,3.80
2018-12-02T00:57:45.967Z,4.30
2018-12-02T01:00:20.507Z,4.67
2018-12-02T01:02:55.631Z,3.77
2018-12-02T01:05:30.288Z,3.20
2018-12-02T01:08:04.106Z,4.03
2018-12-02T01:10:39.016Z,3.73
2018-12-02T01:13:13.540Z,4.23
2018-12-02T01:15:48.389Z,3.77
2018-12-02T01:18:22.181Z,3.17
2018-12-02T01:20:56.003Z,4.00
2018-12-02T01:23:30.089Z,3.00
2018-12-02T01:26:03.929Z,3.20
2018-12-02T01:28:37.744Z,3.30
2018-12-02T01:31:11.529Z,3.57
2018-12-02T01:33:45.365Z,3.60
2018-12-02T01:36:19.202Z,4.08
2018-12-02T01:38:53.690Z,3.63
2018-12-02T01:41:28.600Z,3.30
2018-12-02T01:44:02.366Z,3.53
2018-12-02T01:46:36.846Z,3.27
2018-12-02T01:49:10.934Z,3.17
2018-12-02T01:51:44.720Z,3.50
2018-12-02T01:54:19.263Z,3.40
2018-12-02T01:56:53.101Z,3.43
2018-12-02T01:59:27.284Z,3.00
2018-12-02T02:02:01.504Z,3.33
2018-12-02T02:04:35.583Z,2.40
2018-12-02T02:07:09.330Z,3.00
2018-12-02T02:09:43.191Z,3.17
2018-12-02T02:12:16.958Z,3.10
2018-12-02T02:14:50.768Z,3.37
2018-12-02T02:17:24.631Z,2.90
2018-12-02T02:19:59.155Z,2.60
2018-12-02T02:22:33.665Z,2.52
2018-12-02T02:27:59.046Z,2.17
2018-12-02T02:30:33.075Z,2.80
2018-12-02T02:33:07.125Z,3.00
2018-12-02T02:35:41.673Z,3.30
2018-12-02T02:38:15.451Z,1.87
2018-12-02T02:40:49.989Z,2.57
2018-12-02T02:43:23.798Z,2.40
2018-12-02T02:45:57.938Z,2.47
2018-12-02T02:48:31.853Z,2.77
2018-12-02T02:51:05.680Z,1.57
2018-12-02T02:53:39.421Z,1.60
2018-12-02T02:56:13.965Z,1.93
2018-12-02T02:58:47.753Z,1.93
2018-12-02T03:01:22.539Z,2.27
2018-12-02T03:03:56.304Z,2.10
2018-12-02T03:06:30.536Z,1.77
2018-12-02T03:09:05.076Z,1.90
2018-12-02T03:11:38.913Z,2.35
2018-12-02T03:14:12.778Z,2.30
2018-12-02T03:16:46.597Z,1.72
2018-12-02T03:19:20.722Z,1.90
2018-12-02T03:21:54.897Z,1.60
2018-12-02T03:24:29.030Z,1.63
2018-12-02T03:27:02.853Z,1.57
2018-12-02T03:29:36.665Z,1.70
2018-12-02T03:32:10.466Z,1.40
2018-12-02T03:34:44.223Z,1.27
2018-12-02T03:37:18.133Z,1.57
2018-12-02T03:39:51.954Z,1.77
2018-12-02T03:42:25.822Z,1.17
2018-12-02T03:44:59.622Z,1.30
2018-12-02T03:47:33.793Z,2.03
2018-12-02T03:50:17.547Z,1.57
2018-12-02T03:52:47.897Z,1.70
2018-12-02T03:55:21.678Z,1.73
2018-12-02T03:57:55.414Z,1.40
2018-12-02T04:00:29.931Z,1.53
2018-12-02T04:03:03.710Z,1.50
2018-12-02T04:05:37.505Z,1.70
2018-12-02T04:10:52.806Z,1.30
2018-12-02T04:16:08.410Z,1.10
2018-12-02T04:18:42.254Z,1.00
2018-12-02T04:21:16.763Z,1.00
2018-12-02T04:23:51.318Z,0.80
2018-12-02T04:26:26.169Z,0.90
2018-12-02T04:28:59.942Z,1.10
2018-12-02T04:31:34.477Z,0.73
2018-12-02T04:34:09.009Z,0.90
2018-12-02T04:36:42.818Z,0.67
2018-12-02T04:39:16.640Z,1.20
2018-12-02T04:41:50.456Z,1.00
2018-12-02T04:44:24.325Z,1.43
2018-12-02T04:46:58.848Z,0.90
2018-12-02T04:49:32.644Z,1.00
2018-12-02T04:52:07.269Z,0.90
2018-12-02T04:54:42.538Z,1.00
2018-12-02T04:57:16.368Z,0.93
2018-12-02T04:59:50.172Z,0.77
2018-12-02T05:02:25.604Z,1.00
2018-12-02T05:04:59.384Z,0.70
2018-12-02T05:07:33.918Z,0.80
2018-12-02T05:10:16.940Z,0.90
2018-12-02T05:12:51.283Z,0.70
2018-12-02T05:15:25.416Z,0.90
2018-12-02T05:17:59.231Z,0.80
2018-12-02T05:20:33.855Z,1.40
2018-12-02T05:23:07.982Z,0.87
2018-12-02T05:25:41.802Z,0.80
2018-12-02T05:31:02.017Z,1.00
2018-12-02T05:33:36.460Z,1.33
2018-12-02T05:36:10.250Z,0.90
2018-12-02T05:38:44.777Z,1.00
2018-12-02T05:41:19.620Z,0.90
2018-12-02T05:43:53.435Z,1.50
2018-12-02T05:46:27.243Z,1.23
2018-12-02T05:49:01.332Z,1.10
2018-12-02T05:51:35.230Z,1.10
2018-12-02T05:54:09.779Z,0.95
2018-12-02T05:56:43.586Z,0.70
2018-12-02T05:59:17.487Z,1.42
2018-12-02T06:01:51.985Z,0.87
2018-12-02T06:07:07.787Z,1.00
2018-12-02T06:09:41.662Z,1.03
2018-12-02T06:12:15.467Z,0.97
2018-12-02T06:14:49.266Z,0.97
2018-12-02T06:17:23.093Z,1.27
2018-12-02T06:19:56.870Z,1.00
2018-12-02T06:22:30.677Z,1.27
2018-12-02T06:25:04.475Z,1.30
2018-12-02T06:27:38.698Z,1.07
2018-12-02T06:30:31.751Z,1.17
2018-12-02T06:33:06.689Z,1.53
2018-12-02T06:35:40.534Z,1.63
2018-12-02T06:38:14.293Z,1.60
2018-12-02T06:40:48.302Z,1.83
2018-12-02T06:43:22.783Z,1.63
2018-12-02T06:45:56.590Z,1.10
2018-12-02T06:48:30.423Z,1.15
2018-12-02T06:51:04.175Z,1.20
2018-12-02T06:53:39.058Z,1.40
2018-12-02T07:03:01.455Z,0.80
2018-12-02T07:08:15.600Z,0.70
2018-12-02T07:10:50.121Z,0.77
2018-12-02T07:13:24.653Z,0.80
2018-12-02T07:15:59.174Z,0.90
2018-12-02T07:18:37.554Z,0.70
2018-12-02T07:21:15.713Z,1.00
2018-12-02T07:29:15.045Z,0.77
2018-12-02T07:31:49.146Z,0.70
2018-12-02T07:37:23.052Z,0.80
2018-12-02T07:40:30.948Z,1.03
2018-12-02T07:43:06.282Z,1.23
2018-12-02T07:45:40.084Z,0.98
2018-12-02T07:50:55.389Z,0.70
2018-12-02T07:53:29.154Z,0.80
2018-12-02T07:56:02.965Z,1.00
2018-12-02T07:58:37.051Z,0.63
2018-12-02T08:03:53.067Z,0.60
2018-12-02T08:06:27.602Z,0.73
2018-12-02T08:09:01.393Z,0.50
2018-12-02T08:11:36.383Z,0.50
2018-12-02T08:14:10.192Z,0.60
2018-12-02T08:16:43.996Z,0.40
2018-12-02T08:19:17.809Z,0.47
2018-12-02T08:21:51.569Z,0.40
2018-12-02T08:24:25.429Z,0.60
2018-12-02T08:26:59.257Z,0.50
2018-12-02T08:29:33.808Z,0.50
2018-12-02T08:32:07.786Z,0.65
2018-12-02T08:34:42.311Z,0.63
2018-12-02T08:37:16.841Z,0.60
2018-12-02T08:39:51.381Z,0.70
2018-12-02T08:42:25.142Z,0.70
2018-12-02T08:44:58.919Z,0.60
2018-12-02T08:47:32.714Z,0.50
2018-12-02T08:50:09.426Z,0.50
2018-12-02T08:52:43.275Z,0.50
2018-12-02T08:55:21.675Z,0.68
2018-12-02T08:57:56.396Z,0.70
2018-12-02T09:00:30.996Z,0.80
2018-12-02T09:03:08.557Z,0.70
2018-12-02T09:05:42.654Z,0.60
2018-12-02T09:08:16.516Z,0.80
2018-12-02T09:10:50.279Z,0.70
2018-12-02T09:13:24.100Z,0.63
2018-12-02T09:15:57.851Z,0.70
2018-12-02T09:18:32.384Z,0.60
2018-12-02T09:21:07.130Z,1.10
2018-12-02T09:23:40.974Z,0.70
2018-12-02T09:26:14.783Z,0.60
2018-12-02T09:28:49.358Z,0.70
2018-12-02T09:31:23.150Z,0.60
2018-12-02T09:33:57.985Z,0.80
2018-12-02T09:36:32.497Z,0.85
2018-12-02T09:39:09.853Z,0.80
2018-12-02T09:41:43.665Z,0.70
2018-12-02T09:44:18.017Z,0.90
2018-12-02T09:49:33.967Z,0.70
2018-12-02T09:52:08.118Z,1.07
2018-12-02T10:00:19.856Z,0.87
2018-12-02T10:05:35.142Z,0.67
2018-12-02T10:08:10.402Z,0.80
2018-12-02T10:10:45.326Z,0.60
2018-12-02T10:16:04.712Z,0.70
2018-12-02T10:18:38.506Z,0.72
2018-12-02T10:21:12.294Z,0.72
2018-12-02T10:23:46.082Z,0.85
2018-12-02T10:29:04.505Z,1.40
2018-12-02T10:31:39.031Z,0.90
2018-12-02T10:34:13.694Z,1.00
2018-12-02T10:36:47.586Z,0.90
2018-12-02T10:39:21.533Z,0.88
2018-12-02T10:44:38.521Z,1.00
2018-12-02T10:47:12.293Z,1.40
2018-12-02T10:52:27.510Z,1.50
2018-12-02T10:55:02.079Z,1.60
2018-12-02T11:00:36.234Z,1.60
2018-12-02T11:03:10.050Z,1.77
2018-12-02T11:08:26.633Z,1.70
2018-12-02T11:11:00.430Z,1.83
2018-12-02T11:13:34.221Z,2.30
2018-12-02T11:16:09.620Z,2.02
2018-12-02T11:18:43.452Z,2.30
2018-12-02T11:21:17.247Z,2.60
2018-12-02T11:23:51.021Z,2.30
2018-12-02T11:26:24.808Z,2.70
2018-12-02T11:28:58.593Z,3.12
2018-12-02T11:31:33.147Z,3.05
2018-12-02T11:34:07.284Z,2.77
2018-12-02T11:39:23.639Z,2.80
2018-12-02T11:44:40.025Z,2.67
2018-12-02T11:49:56.254Z,2.15
2018-12-02T11:52:30.064Z,2.35
2018-12-02T11:55:03.890Z,2.73
2018-12-02T11:57:38.423Z,3.00
2018-12-02T12:03:20.400Z,2.63
2018-12-02T12:05:54.181Z,2.98
2018-12-02T12:11:10.174Z,2.37
2018-12-02T12:13:43.962Z,2.83
2018-12-02T12:16:17.760Z,3.35
2018-12-02T12:18:52.715Z,3.67
2018-12-02T12:21:26.461Z,3.72
2018-12-02T12:24:00.253Z,3.53
2018-12-02T12:26:34.050Z,3.83
2018-12-02T12:31:49.393Z,3.45
2018-12-02T12:37:03.496Z,2.90
2018-12-02T12:39:37.306Z,4.37
2018-12-02T12:42:11.080Z,4.12
2018-12-02T12:47:27.801Z,3.50
2018-12-02T12:50:02.329Z,3.63
2018-12-02T12:52:36.829Z,4.07
2018-12-02T12:57:54.430Z,4.10
2018-12-02T13:00:28.262Z,4.30
2018-12-02T13:05:48.306Z,5.50
2018-12-02T13:08:22.134Z,5.70
2018-12-02T13:10:55.942Z,6.20
2018-12-02T13:16:11.905Z,8.17
2018-12-02T13:18:45.694Z,9.15
2018-12-02T13:21:19.550Z,8.33
2018-12-02T13:26:44.009Z,9.30
2018-12-02T13:29:17.845Z,9.48
2018-12-02T13:31:51.794Z,9.43
2018-12-02T13:34:25.718Z,8.95
2018-12-02T13:39:41.826Z,8.40
2018-12-02T13:42:15.732Z,8.33
2018-12-02T13:44:49.550Z,6.90
2018-12-02T13:47:23.443Z,6.80
2018-12-02T13:49:57.315Z,7.27
2018-12-02T13:52:31.830Z,7.20
2018-12-02T13:55:07.406Z,7.12
2018-12-02T13:57:41.346Z,6.60
2018-12-02T14:06:04.242Z,7.17
2018-12-02T14:08:39.167Z,7.83
2018-12-02T14:11:11.846Z,7.12
2018-12-02T14:13:48.788Z,7.78
2018-12-02T14:19:39.949Z,7.35
2018-12-02T14:22:13.905Z,7.92
2018-12-02T14:25:02.617Z,7.05
2018-12-02T14:27:31.148Z,6.87
2018-12-02T14:30:04.920Z,6.60
2018-12-02T14:32:38.745Z,6.87
2018-12-02T14:37:54.017Z,5.08
2018-12-02T14:40:27.807Z,5.15
2018-12-02T14:45:43.789Z,5.93
2018-12-02T14:48:17.571Z,6.27
2018-12-02T14:50:51.365Z,7.45
2018-12-02T14:56:07.035Z,8.35
2018-12-02T14:58:40.822Z,7.50
2018-12-02T15:01:14.594Z,7.75
2018-12-02T15:03:48.391Z,6.97
2018-12-02T15:06:22.237Z,5.30
2018-12-02T15:08:56.333Z,6.73
2018-12-02T15:11:30.893Z,5.93
2018-12-02T15:14:04.966Z,5.53
2018-12-02T15:16:38.740Z,5.63
2018-12-02T15:19:14.509Z,6.45
2018-12-02T15:24:30.120Z,5.35
2018-12-02T15:27:04.718Z,6.17
2018-12-02T15:29:38.578Z,6.12
2018-12-02T15:32:13.081Z,6.67
2018-12-02T15:37:27.330Z,6.55
2018-12-02T15:40:01.130Z,7.53
2018-12-02T15:42:34.903Z,8.68
2018-12-02T15:45:13.367Z,7.87
2018-12-02T15:47:47.598Z,8.33
2018-12-02T15:50:26.202Z,9.00
2018-12-02T15:52:59.987Z,8.28
2018-12-02T15:55:35.625Z,7.92
2018-12-02T15:58:12.111Z,7.58
2018-12-02T16:00:47.692Z,6.72
2018-12-02T16:03:22.576Z,6.30
2018-12-02T16:05:56.526Z,5.15
2018-12-02T16:08:31.189Z,5.30
2018-12-02T16:11:05.579Z,5.47
2018-12-02T16:13:40.104Z,4.45
2018-12-02T16:16:14.029Z,5.03
2018-12-02T16:18:48.520Z,5.83
2018-12-02T16:21:23.020Z,6.42
2018-12-02T16:23:56.755Z,6.40
2018-12-02T16:26:31.325Z,7.53
2018-12-02T16:29:05.455Z,7.70
2018-12-02T16:31:39.276Z,7.20
2018-12-02T16:34:13.424Z,7.85
2018-12-02T16:39:27.462Z,9.10
2018-12-02T16:42:01.314Z,9.68
2018-12-02T16:44:35.170Z,9.53
2018-12-02T16:47:08.985Z,9.08
2018-12-02T16:49:42.808Z,9.63
2018-12-02T16:55:03.932Z,10.75
2018-12-02T17:00:26.853Z,12.82
2018-12-02T17:05:42.178Z,15.40
2018-12-02T17:08:16.013Z,15.63
2018-12-02T17:10:50.838Z,15.25
2018-12-02T17:16:07.077Z,11.15
2018-12-02T17:18:42.054Z,11.22
2018-12-02T17:21:14.717Z,11.90
2018-12-02T17:26:29.960Z,13.07
2018-12-02T17:29:05.058Z,14.35
2018-12-02T17:32:08.215Z,11.60
2018-12-02T17:37:26.765Z,12.13
2018-12-02T17:40:01.623Z,13.72
2018-12-02T17:42:35.374Z,13.43
2018-12-02T17:47:53.212Z,13.70
2018-12-02T17:50:27.033Z,12.35
2018-12-02T17:55:51.968Z,14.13
2018-12-02T17:58:26.494Z,15.10
2018-12-02T18:01:00.333Z,15.32
2018-12-02T18:06:17.454Z,16.80
2018-12-02T18:08:51.536Z,17.77
2018-12-02T18:11:26.058Z,14.38
2018-12-02T18:16:42.215Z,13.62
2018-12-02T18:19:16.590Z,10.25
2018-12-02T18:21:51.126Z,13.07
2018-12-02T18:27:07.109Z,14.75
2018-12-02T18:29:41.270Z,13.48
2018-12-02T18:32:15.065Z,12.98
2018-12-02T18:37:31.062Z,10.38
2018-12-02T18:40:05.623Z,9.93
2018-12-02T18:42:39.466Z,8.77
2018-12-02T18:47:54.682Z,7.65
2018-12-02T18:50:29.226Z,8.60
2018-12-02T18:53:03.062Z,7.62
2018-12-02T18:55:36.891Z,9.05
2018-12-02T18:58:11.018Z,8.10
2018-12-02T19:00:44.819Z,8.08
2018-12-02T19:03:21.334Z,8.43
2018-12-02T19:05:56.052Z,8.93
2018-12-02T19:08:30.099Z,9.70
2018-12-02T19:11:04.575Z,8.83
2018-12-02T19:13:43.619Z,8.27
2018-12-02T19:16:12.601Z,7.60
2018-12-02T19:18:48.984Z,8.80
2018-12-02T19:21:31.462Z,7.10
2018-12-02T19:24:05.278Z,6.33
2018-12-02T19:26:39.811Z,6.75
2018-12-02T19:29:13.640Z,6.08
2018-12-02T19:31:47.410Z,6.00
2018-12-02T19:34:21.172Z,6.10
2018-12-02T19:36:59.511Z,4.92
2018-12-02T19:39:33.370Z,5.00
2018-12-02T19:42:07.573Z,4.70
2018-12-02T19:44:41.445Z,4.78
2018-12-02T19:47:15.299Z,4.42
2018-12-02T19:49:49.079Z,4.40
2018-12-02T19:52:23.943Z,5.20
2018-12-02T19:54:58.168Z,4.97
2018-12-02T19:57:31.984Z,5.40
2018-12-02T20:02:49.141Z,6.47
2018-12-02T20:05:23.182Z,6.60
2018-12-02T20:08:03.106Z,7.62
2018-12-02T20:10:36.894Z,8.53
2018-12-02T20:13:18.988Z,9.50
2018-12-02T20:16:12.484Z,9.88
2018-12-02T20:18:46.302Z,9.83
2018-12-02T20:29:45.191Z,10.58
2018-12-02T20:32:19.355Z,10.15
2018-12-02T20:37:32.687Z,9.17
2018-12-02T20:40:11.270Z,10.28
2018-12-02T20:45:25.111Z,11.20
2018-12-02T20:47:59.660Z,11.95
2018-12-02T20:50:33.439Z,12.78
2018-12-02T20:55:49.438Z,12.28
2018-12-02T20:58:23.681Z,11.25
2018-12-02T21:00:57.470Z,10.63
2018-12-02T21:06:24.197Z,10.05
2018-12-02T21:08:58.046Z,10.13
2018-12-02T21:11:31.906Z,10.15
2018-12-02T21:16:47.148Z,9.80
2018-12-02T21:19:21.001Z,9.45
2018-12-02T21:21:54.823Z,9.43
2018-12-02T21:29:50.290Z,7.90
2018-12-02T21:32:24.939Z,9.13
2018-12-02T21:34:58.742Z,10.35
2018-12-02T21:37:33.278Z,9.85
2018-12-02T21:43:00.514Z,11.75
2018-12-02T21:48:21.108Z,12.15
2018-12-02T21:50:57.191Z,9.90
2018-12-02T21:56:13.175Z,10.00
2018-12-02T21:58:47.033Z,9.38
2018-12-02T22:01:21.869Z,9.25
2018-12-02T22:03:55.670Z,8.95
2018-12-02T22:09:15.657Z,7.90
2018-12-02T22:11:50.580Z,7.67
2018-12-02T22:14:25.847Z,7.00
2018-12-02T22:17:00.725Z,5.63
2018-12-02T22:22:16.925Z,4.85
2018-12-02T22:24:50.749Z,4.65
2018-12-02T22:27:24.521Z,4.80
2018-12-02T22:29:58.313Z,4.60
2018-12-02T22:32:32.137Z,4.10
2018-12-02T22:35:06.523Z,3.65
2018-12-02T22:37:41.473Z,2.62
2018-12-02T22:40:25.919Z,2.77
2018-12-02T22:43:00.448Z,3.83
2018-12-02T22:45:34.263Z,3.55
2018-12-02T22:48:08.285Z,4.00
2018-12-02T22:50:42.122Z,4.17
2018-12-02T22:53:16.181Z,4.90
2018-12-02T22:55:50.286Z,5.87
2018-12-02T22:58:24.879Z,6.53
2018-12-02T23:01:17.334Z,8.05
2018-12-02T23:06:33.522Z,10.45
2018-12-02T23:09:10.119Z,11.88
2018-12-02T23:11:43.924Z,12.25
2018-12-02T23:17:24.061Z,12.25
2018-12-02T23:19:57.849Z,12.40
2018-12-02T23:25:14.650Z,14.07
2018-12-02T23:27:49.361Z,14.75
2018-12-02T23:30:25.273Z,13.83
2018-12-02T23:32:59.100Z,13.90
2018-12-02T23:38:16.226Z,12.53
2018-12-02T23:40:50.047Z,11.05
2018-12-02T23:46:05.309Z,12.73
2018-12-02T23:48:39.137Z,13.10
2018-12-02T23:51:12.983Z,12.35
2018-12-02T23:53:46.839Z,12.35
2018-12-02T23:56:20.733Z,10.40
2018-12-02T23:58:54.821Z,11.33
